sensor_id;sensor_type;location;lat;lon;timestamp;pressure;altitude;pressure_sealevel;temperature;humidity
40205;BME280;26963;42.666;23.366;2023-08-30T00:00:49;94053.97;;;23.56;62.44
40205;BME280;26963;42.666;23.366;2023-08-30T00:03:14;94020.50;;;23.38;62.59
40205;BME280;26963;42.666;23.366;2023-08-30T00:05:41;94055.81;;;23.74;63.57
40205;BME280;26963;42.666;23.366;2023-08-30T00:08:07;94049.56;;;23.73;64.14
40205;BME280;26963;42.666;23.366;2023-08-30T00:10:32;94054.69;;;23.64;62.75
40205;BME280;26963;42.666;23.366;2023-08-30T00:12:58;94034.06;;;23.52;62.63
40205;BME280;26963;42.666;23.366;2023-08-30T00:15:24;94044.25;;;23.41;62.98
40205;BME280;26963;42.666;23.366;2023-08-30T00:17:49;94020.16;;;23.28;62.58
40205;BME280;26963;42.666;23.366;2023-08-30T00:20:18;94036.84;;;23.45;61.17
40205;BME280;26963;42.666;23.366;2023-08-30T00:22:43;94054.31;;;23.58;61.30
40205;BME280;26963;42.666;23.366;2023-08-30T00:25:09;94047.25;;;23.72;61.85
40205;BME280;26963;42.666;23.366;2023-08-30T00:27:35;94013.47;;;23.40;62.58
40205;BME280;26963;42.666;23.366;2023-08-30T00:30:00;94046.94;;;23.55;61.94
40205;BME280;26963;42.666;23.366;2023-08-30T00:32:26;94034.88;;;23.49;61.35
40205;BME280;26963;42.666;23.366;2023-08-30T00:34:51;94009.59;;;23.31;60.03
40205;BME280;26963;42.666;23.366;2023-08-30T00:37:17;94052.50;;;23.34;58.90
40205;BME280;26963;42.666;23.366;2023-08-30T00:39:43;93971.97;;;22.78;58.65
40205;BME280;26963;42.666;23.366;2023-08-30T00:42:08;94034.56;;;23.25;57.67
40205;BME280;26963;42.666;23.366;2023-08-30T00:44:34;94039.66;;;23.23;57.79
40205;BME280;26963;42.666;23.366;2023-08-30T00:47:01;94053.25;;;23.38;58.38
40205;BME280;26963;42.666;23.366;2023-08-30T00:49:29;94054.41;;;23.44;59.32
40205;BME280;26963;42.666;23.366;2023-08-30T00:51:56;94055.16;;;23.41;58.37
40205;BME280;26963;42.666;23.366;2023-08-30T00:54:23;94034.97;;;23.31;58.36
40205;BME280;26963;42.666;23.366;2023-08-30T00:56:48;94043.50;;;23.37;57.99
40205;BME280;26963;42.666;23.366;2023-08-30T00:59:16;94043.53;;;23.29;57.86
40205;BME280;26963;42.666;23.366;2023-08-30T01:01:42;94039.69;;;23.16;57.62
40205;BME280;26963;42.666;23.366;2023-08-30T01:04:08;94052.16;;;23.03;55.98
40205;BME280;26963;42.666;23.366;2023-08-30T01:06:33;94028.06;;;22.76;57.09
40205;BME280;26963;42.666;23.366;2023-08-30T01:09:01;94090.34;;;23.13;58.42
40205;BME280;26963;42.666;23.366;2023-08-30T01:11:34;93957.63;;;22.53;54.51
40205;BME280;26963;42.666;23.366;2023-08-30T01:14:10;94090.31;;;23.32;54.89
40205;BME280;26963;42.666;23.366;2023-08-30T01:16:38;94010.94;;;22.75;54.86
40205;BME280;26963;42.666;23.366;2023-08-30T01:22:14;94089.59;;;22.95;55.06
40205;BME280;26963;42.666;23.366;2023-08-30T01:24:47;94074.00;;;22.88;56.90
40205;BME280;26963;42.666;23.366;2023-08-30T01:27:20;94078.69;;;22.84;59.49
40205;BME280;26963;42.666;23.366;2023-08-30T01:29:47;94074.00;;;22.85;60.62
40205;BME280;26963;42.666;23.366;2023-08-30T01:32:14;94065.44;;;22.97;59.75
40205;BME280;26963;42.666;23.366;2023-08-30T01:34:42;94083.34;;;23.20;58.03
40205;BME280;26963;42.666;23.366;2023-08-30T01:37:11;94082.53;;;23.19;59.53
40205;BME280;26963;42.666;23.366;2023-08-30T01:39:39;94061.50;;;23.16;59.57
40205;BME280;26963;42.666;23.366;2023-08-30T01:42:06;94071.63;;;23.19;60.09
40205;BME280;26963;42.666;23.366;2023-08-30T01:44:33;94086.84;;;23.17;60.25
40205;BME280;26963;42.666;23.366;2023-08-30T01:47:00;94077.50;;;23.07;60.33
40205;BME280;26963;42.666;23.366;2023-08-30T01:49:28;94082.56;;;23.16;58.06
40205;BME280;26963;42.666;23.366;2023-08-30T01:51:57;94077.91;;;23.02;58.57
40205;BME280;26963;42.666;23.366;2023-08-30T01:54:24;94080.22;;;23.07;57.04
40205;BME280;26963;42.666;23.366;2023-08-30T01:56:50;94085.28;;;23.08;58.77
40205;BME280;26963;42.666;23.366;2023-08-30T01:59:16;94087.22;;;23.19;55.99
40205;BME280;26963;42.666;23.366;2023-08-30T02:01:41;94020.28;;;22.78;55.28
40205;BME280;26963;42.666;23.366;2023-08-30T02:04:07;94093.44;;;23.19;55.07
40205;BME280;26963;42.666;23.366;2023-08-30T02:09:13;94084.13;;;23.06;57.26
40205;BME280;26963;42.666;23.366;2023-08-30T02:11:42;94021.06;;;22.68;57.82
40205;BME280;26963;42.666;23.366;2023-08-30T02:14:10;94082.16;;;23.03;56.79
40205;BME280;26963;42.666;23.366;2023-08-30T02:16:37;94078.66;;;22.95;57.29
40205;BME280;26963;42.666;23.366;2023-08-30T02:19:05;94017.19;;;22.54;57.76
40205;BME280;26963;42.666;23.366;2023-08-30T02:21:31;94068.56;;;22.99;56.36
40205;BME280;26963;42.666;23.366;2023-08-30T02:23:57;94065.03;;;22.99;56.84
40205;BME280;26963;42.666;23.366;2023-08-30T02:26:23;94030.78;;;22.69;59.74
40205;BME280;26963;42.666;23.366;2023-08-30T02:28:48;94059.97;;;23.01;59.41
40205;BME280;26963;42.666;23.366;2023-08-30T02:31:14;93991.84;;;22.61;60.06
40205;BME280;26963;42.666;23.366;2023-08-30T02:33:40;94060.38;;;22.95;60.75
40205;BME280;26963;42.666;23.366;2023-08-30T02:36:05;94063.09;;;22.88;61.26
40205;BME280;26963;42.666;23.366;2023-08-30T02:38:31;94027.31;;;22.54;61.46
40205;BME280;26963;42.666;23.366;2023-08-30T02:40:56;94039.75;;;22.55;60.88
40205;BME280;26963;42.666;23.366;2023-08-30T02:43:22;94066.28;;;22.40;61.29
40205;BME280;26963;42.666;23.366;2023-08-30T02:45:48;94060.78;;;22.25;62.88
40205;BME280;26963;42.666;23.366;2023-08-30T02:48:14;93982.88;;;21.59;61.31
40205;BME280;26963;42.666;23.366;2023-08-30T02:50:39;94063.13;;;22.20;62.64
40205;BME280;26963;42.666;23.366;2023-08-30T02:53:05;94046.78;;;22.23;61.72
40205;BME280;26963;42.666;23.366;2023-08-30T02:55:34;94058.44;;;22.31;60.37
40205;BME280;26963;42.666;23.366;2023-08-30T02:57:59;94022.59;;;21.96;60.24
40205;BME280;26963;42.666;23.366;2023-08-30T03:00:25;94060.78;;;22.18;60.29
40205;BME280;26963;42.666;23.366;2023-08-30T03:02:50;94059.19;;;22.10;60.45
40205;BME280;26963;42.666;23.366;2023-08-30T03:05:17;93944.31;;;21.28;60.66
40205;BME280;26963;42.666;23.366;2023-08-30T03:07:43;93971.13;;;21.26;61.03
40205;BME280;26963;42.666;23.366;2023-08-30T03:10:09;94060.75;;;21.89;61.63
40205;BME280;26963;42.666;23.366;2023-08-30T03:12:35;94070.84;;;21.85;61.88
40205;BME280;26963;42.666;23.366;2023-08-30T03:15:00;93974.56;;;21.09;63.17
40205;BME280;26963;42.666;23.366;2023-08-30T03:17:26;94065.34;;;21.71;62.98
40205;BME280;26963;42.666;23.366;2023-08-30T03:19:52;93996.00;;;21.25;63.21
40205;BME280;26963;42.666;23.366;2023-08-30T03:22:21;94063.81;;;21.80;63.47
40205;BME280;26963;42.666;23.366;2023-08-30T03:24:46;94052.16;;;21.73;63.57
40205;BME280;26963;42.666;23.366;2023-08-30T03:27:12;94073.19;;;21.90;62.69
40205;BME280;26963;42.666;23.366;2023-08-30T03:29:38;94057.63;;;21.87;63.28
40205;BME280;26963;42.666;23.366;2023-08-30T03:32:04;94063.84;;;21.88;63.51
40205;BME280;26963;42.666;23.366;2023-08-30T03:34:29;94063.06;;;21.94;61.58
40205;BME280;26963;42.666;23.366;2023-08-30T03:36:55;94013.22;;;21.69;62.22
40205;BME280;26963;42.666;23.366;2023-08-30T03:39:21;94052.16;;;21.83;63.00
40205;BME280;26963;42.666;23.366;2023-08-30T03:41:47;94051.34;;;21.72;63.09
40205;BME280;26963;42.666;23.366;2023-08-30T03:44:12;94041.25;;;21.73;63.79
40205;BME280;26963;42.666;23.366;2023-08-30T03:46:38;93998.00;;;21.53;63.51
40205;BME280;26963;42.666;23.366;2023-08-30T03:49:04;93951.34;;;21.40;63.28
40205;BME280;26963;42.666;23.366;2023-08-30T03:51:29;94044.38;;;21.96;63.29
40205;BME280;26963;42.666;23.366;2023-08-30T03:53:55;94038.16;;;21.92;63.26
40205;BME280;26963;42.666;23.366;2023-08-30T03:56:23;94047.91;;;21.93;63.31
40205;BME280;26963;42.666;23.366;2023-08-30T03:58:49;94056.06;;;21.79;64.07
40205;BME280;26963;42.666;23.366;2023-08-30T04:01:15;94068.47;;;21.80;64.30
40205;BME280;26963;42.666;23.366;2023-08-30T04:03:40;94071.56;;;21.75;64.07
40205;BME280;26963;42.666;23.366;2023-08-30T04:06:06;94013.13;;;21.32;63.90
40205;BME280;26963;42.666;23.366;2023-08-30T04:08:32;94076.25;;;21.74;63.82
40205;BME280;26963;42.666;23.366;2023-08-30T04:10:57;93969.53;;;21.11;63.53
40205;BME280;26963;42.666;23.366;2023-08-30T04:13:23;94087.97;;;22.00;63.45
40205;BME280;26963;42.666;23.366;2023-08-30T04:15:49;94070.09;;;22.10;63.56
40205;BME280;26963;42.666;23.366;2023-08-30T04:18:14;94082.16;;;21.98;63.41
40205;BME280;26963;42.666;23.366;2023-08-30T04:20:46;94083.66;;;21.85;63.34
40205;BME280;26963;42.666;23.366;2023-08-30T04:23:13;94088.72;;;21.79;64.04
40205;BME280;26963;42.666;23.366;2023-08-30T04:25:39;94092.63;;;21.92;63.67
40205;BME280;26963;42.666;23.366;2023-08-30T04:28:04;94089.50;;;21.94;62.91
40205;BME280;26963;42.666;23.366;2023-08-30T04:30:30;94104.75;;;22.13;62.98
40205;BME280;26963;42.666;23.366;2023-08-30T04:32:56;94106.31;;;22.25;62.77
40205;BME280;26963;42.666;23.366;2023-08-30T04:35:21;94116.09;;;22.44;61.77
40205;BME280;26963;42.666;23.366;2023-08-30T04:37:47;94127.78;;;22.55;61.87
40205;BME280;26963;42.666;23.366;2023-08-30T04:40:14;94127.00;;;22.66;59.17
40205;BME280;26963;42.666;23.366;2023-08-30T04:42:39;94116.88;;;22.70;59.26
40205;BME280;26963;42.666;23.366;2023-08-30T04:45:06;94148.03;;;22.87;58.24
40205;BME280;26963;42.666;23.366;2023-08-30T04:47:32;94132.84;;;22.86;58.80
40205;BME280;26963;42.666;23.366;2023-08-30T04:49:59;94154.25;;;23.09;59.79
40205;BME280;26963;42.666;23.366;2023-08-30T04:52:24;94083.38;;;22.73;59.40
40205;BME280;26963;42.666;23.366;2023-08-30T04:54:50;94121.50;;;23.05;59.00
40205;BME280;26963;42.666;23.366;2023-08-30T04:57:16;94143.38;;;23.16;58.49
40205;BME280;26963;42.666;23.366;2023-08-30T04:59:42;94130.50;;;22.99;57.61
40205;BME280;26963;42.666;23.366;2023-08-30T05:02:08;94124.66;;;22.89;57.67
40205;BME280;26963;42.666;23.366;2023-08-30T05:04:34;94026.53;;;22.10;58.35
40205;BME280;26963;42.666;23.366;2023-08-30T05:07:00;94137.91;;;22.69;58.05
40205;BME280;26963;42.666;23.366;2023-08-30T05:09:25;94089.97;;;22.25;58.51
40205;BME280;26963;42.666;23.366;2023-08-30T05:11:52;94080.59;;;22.11;59.27
40205;BME280;26963;42.666;23.366;2023-08-30T05:14:19;94143.34;;;22.37;59.01
40205;BME280;26963;42.666;23.366;2023-08-30T05:16:45;94151.09;;;22.35;59.25
40205;BME280;26963;42.666;23.366;2023-08-30T05:19:10;94144.09;;;22.34;59.20
40205;BME280;26963;42.666;23.366;2023-08-30T05:21:36;94129.31;;;22.35;59.25
40205;BME280;26963;42.666;23.366;2023-08-30T05:24:02;94131.66;;;22.47;58.89
40205;BME280;26963;42.666;23.366;2023-08-30T05:26:28;94085.69;;;22.20;59.21
40205;BME280;26963;42.666;23.366;2023-08-30T05:28:54;94128.50;;;22.30;59.31
40205;BME280;26963;42.666;23.366;2023-08-30T05:31:19;94142.56;;;22.40;59.75
40205;BME280;26963;42.666;23.366;2023-08-30T05:33:45;94079.41;;;21.94;59.36
40205;BME280;26963;42.666;23.366;2023-08-30T05:36:10;94142.59;;;22.54;58.97
40205;BME280;26963;42.666;23.366;2023-08-30T05:38:36;94091.13;;;22.27;59.12
40205;BME280;26963;42.666;23.366;2023-08-30T05:41:01;94146.88;;;22.70;58.79
40205;BME280;26963;42.666;23.366;2023-08-30T05:43:27;94070.94;;;22.39;57.82
40205;BME280;26963;42.666;23.366;2023-08-30T05:45:53;94146.88;;;22.99;58.87
40205;BME280;26963;42.666;23.366;2023-08-30T05:48:18;94131.66;;;22.94;59.37
40205;BME280;26963;42.666;23.366;2023-08-30T05:50:44;94142.56;;;23.12;58.08
40205;BME280;26963;42.666;23.366;2023-08-30T05:53:10;94123.47;;;23.08;57.04
40205;BME280;26963;42.666;23.366;2023-08-30T05:55:36;94149.59;;;23.20;55.84
40205;BME280;26963;42.666;23.366;2023-08-30T05:58:03;94142.94;;;23.36;56.87
40205;BME280;26963;42.666;23.366;2023-08-30T06:00:29;94130.06;;;23.36;55.67
40205;BME280;26963;42.666;23.366;2023-08-30T06:02:54;94093.44;;;23.26;54.80
40205;BME280;26963;42.666;23.366;2023-08-30T06:05:20;94140.09;;;23.68;53.81
40205;BME280;26963;42.666;23.366;2023-08-30T06:07:45;94116.72;;;23.64;50.44
40205;BME280;26963;42.666;23.366;2023-08-30T06:10:12;94121.34;;;23.77;50.91
40205;BME280;26963;42.666;23.366;2023-08-30T06:12:37;94130.63;;;24.02;49.70
40205;BME280;26963;42.666;23.366;2023-08-30T06:15:03;94132.13;;;24.10;49.94
40205;BME280;26963;42.666;23.366;2023-08-30T06:17:29;94119.63;;;24.16;49.89
40205;BME280;26963;42.666;23.366;2023-08-30T06:19:54;94060.88;;;23.79;50.37
40205;BME280;26963;42.666;23.366;2023-08-30T06:22:20;94076.00;;;23.98;51.45
40205;BME280;26963;42.666;23.366;2023-08-30T06:24:46;94131.25;;;24.27;51.57
40205;BME280;26963;42.666;23.366;2023-08-30T06:27:12;94091.59;;;23.98;52.30
40205;BME280;26963;42.666;23.366;2023-08-30T06:29:38;94136.00;;;24.16;52.20
40205;BME280;26963;42.666;23.366;2023-08-30T06:32:04;94139.84;;;24.30;52.40
40205;BME280;26963;42.666;23.366;2023-08-30T06:34:30;94047.09;;;24.04;50.01
40205;BME280;26963;42.666;23.366;2023-08-30T06:36:56;94152.19;;;25.50;47.49
40205;BME280;26963;42.666;23.366;2023-08-30T06:39:21;94092.22;;;25.91;46.22
40205;BME280;26963;42.666;23.366;2023-08-30T06:41:47;94079.38;;;26.66;42.74
40205;BME280;26963;42.666;23.366;2023-08-30T06:44:13;94122.69;;;27.90;40.68
40205;BME280;26963;42.666;23.366;2023-08-30T06:46:38;94146.28;;;28.80;38.39
40205;BME280;26963;42.666;23.366;2023-08-30T06:49:05;94148.94;;;29.34;38.06
40205;BME280;26963;42.666;23.366;2023-08-30T06:51:31;94144.22;;;29.93;36.52
40205;BME280;26963;42.666;23.366;2023-08-30T06:53:56;94142.03;;;30.56;34.82
40205;BME280;26963;42.666;23.366;2023-08-30T06:56:28;94141.94;;;31.33;33.08
40205;BME280;26963;42.666;23.366;2023-08-30T06:58:54;94140.72;;;32.36;31.32
40205;BME280;26963;42.666;23.366;2023-08-30T07:01:19;94095.16;;;32.68;30.72
40205;BME280;26963;42.666;23.366;2023-08-30T07:03:45;94137.63;;;34.18;29.56
40205;BME280;26963;42.666;23.366;2023-08-30T07:06:11;94127.63;;;35.06;27.41
40205;BME280;26963;42.666;23.366;2023-08-30T07:08:36;94132.63;;;35.65;26.20
40205;BME280;26963;42.666;23.366;2023-08-30T07:11:02;94137.75;;;36.36;25.34
40205;BME280;26963;42.666;23.366;2023-08-30T07:13:27;94132.44;;;37.03;24.76
40205;BME280;26963;42.666;23.366;2023-08-30T07:15:53;94114.94;;;37.39;23.80
40205;BME280;26963;42.666;23.366;2023-08-30T07:18:19;94132.69;;;37.62;22.64
40205;BME280;26963;42.666;23.366;2023-08-30T07:20:44;94072.56;;;37.61;22.75
40205;BME280;26963;42.666;23.366;2023-08-30T07:23:10;94133.59;;;37.94;23.14
40205;BME280;26963;42.666;23.366;2023-08-30T07:25:37;94071.28;;;36.79;24.88
40205;BME280;26963;42.666;23.366;2023-08-30T07:28:04;94131.22;;;35.21;26.29
40205;BME280;26963;42.666;23.366;2023-08-30T07:30:30;94121.47;;;35.02;27.04
40205;BME280;26963;42.666;23.366;2023-08-30T07:32:56;94141.91;;;36.01;25.89
40205;BME280;26963;42.666;23.366;2023-08-30T07:35:22;94136.94;;;36.35;24.13
40205;BME280;26963;42.666;23.366;2023-08-30T07:37:47;94089.31;;;35.88;24.21
40205;BME280;26963;42.666;23.366;2023-08-30T07:40:13;94148.84;;;36.51;24.36
40205;BME280;26963;42.666;23.366;2023-08-30T07:42:38;94123.88;;;36.86;24.17
40205;BME280;26963;42.666;23.366;2023-08-30T07:45:04;94079.84;;;37.52;22.99
40205;BME280;26963;42.666;23.366;2023-08-30T07:47:30;94132.59;;;38.50;21.67
40205;BME280;26963;42.666;23.366;2023-08-30T07:49:56;94126.81;;;38.91;20.84
40205;BME280;26963;42.666;23.366;2023-08-30T07:52:21;94122.44;;;38.85;21.52
40205;BME280;26963;42.666;23.366;2023-08-30T07:54:47;94136.31;;;38.15;21.62
40205;BME280;26963;42.666;23.366;2023-08-30T07:57:12;94084.38;;;37.50;21.66
40205;BME280;26963;42.666;23.366;2023-08-30T07:59:38;94139.03;;;38.09;22.10
40205;BME280;26963;42.666;23.366;2023-08-30T08:02:05;94071.47;;;37.52;21.85
40205;BME280;26963;42.666;23.366;2023-08-30T08:04:33;94144.31;;;37.19;22.79
40205;BME280;26963;42.666;23.366;2023-08-30T08:06:59;94129.47;;;36.56;23.04
40205;BME280;26963;42.666;23.366;2023-08-30T08:09:24;94148.09;;;36.65;23.19
40205;BME280;26963;42.666;23.366;2023-08-30T08:11:50;94132.09;;;36.81;23.07
40205;BME280;26963;42.666;23.366;2023-08-30T08:14:15;94137.34;;;37.29;22.42
40205;BME280;26963;42.666;23.366;2023-08-30T08:16:41;94130.50;;;37.10;23.32
40205;BME280;26963;42.666;23.366;2023-08-30T08:19:07;94116.72;;;37.00;22.85
40205;BME280;26963;42.666;23.366;2023-08-30T08:21:33;94128.81;;;37.80;22.61
40205;BME280;26963;42.666;23.366;2023-08-30T08:23:59;94138.44;;;38.52;21.79
40205;BME280;26963;42.666;23.366;2023-08-30T08:26:25;94135.66;;;38.52;21.18
40205;BME280;26963;42.666;23.366;2023-08-30T08:28:51;94141.75;;;38.82;21.42
40205;BME280;26963;42.666;23.366;2023-08-30T08:31:16;94134.81;;;39.15;20.54
40205;BME280;26963;42.666;23.366;2023-08-30T08:33:43;94139.69;;;39.21;19.40
40205;BME280;26963;42.666;23.366;2023-08-30T08:36:09;94105.75;;;39.45;19.02
40205;BME280;26963;42.666;23.366;2023-08-30T08:38:34;94132.66;;;40.08;19.01
40205;BME280;26963;42.666;23.366;2023-08-30T08:41:05;94136.03;;;40.41;17.86
40205;BME280;26963;42.666;23.366;2023-08-30T08:43:34;94139.09;;;40.32;17.91
40205;BME280;26963;42.666;23.366;2023-08-30T08:46:02;94142.69;;;40.66;18.20
40205;BME280;26963;42.666;23.366;2023-08-30T08:48:29;94144.19;;;40.33;17.86
40205;BME280;26963;42.666;23.366;2023-08-30T08:50:57;94129.53;;;39.67;17.86
40205;BME280;26963;42.666;23.366;2023-08-30T08:53:23;94069.19;;;38.30;19.53
40205;BME280;26963;42.666;23.366;2023-08-30T08:55:49;94079.63;;;38.03;18.92
40205;BME280;26963;42.666;23.366;2023-08-30T08:58:15;94139.53;;;37.81;19.71
40205;BME280;26963;42.666;23.366;2023-08-30T09:00:42;94131.75;;;37.29;20.62
40205;BME280;26963;42.666;23.366;2023-08-30T09:03:08;94128.13;;;36.52;21.24
40205;BME280;26963;42.666;23.366;2023-08-30T09:05:37;94139.44;;;36.03;21.71
40205;BME280;26963;42.666;23.366;2023-08-30T09:08:04;94128.09;;;35.28;22.30
40205;BME280;26963;42.666;23.366;2023-08-30T09:10:31;94094.19;;;34.57;23.25
40205;BME280;26963;42.666;23.366;2023-08-30T09:12:58;94133.09;;;34.57;24.21
40205;BME280;26963;42.666;23.366;2023-08-30T09:15:33;94063.84;;;33.92;23.95
40205;BME280;26963;42.666;23.366;2023-08-30T09:17:59;94135.31;;;34.16;24.68
40205;BME280;26963;42.666;23.366;2023-08-30T09:20:25;94129.38;;;33.99;25.20
40205;BME280;26963;42.666;23.366;2023-08-30T09:22:51;94060.50;;;33.14;25.01
40205;BME280;26963;42.666;23.366;2023-08-30T09:25:25;94107.28;;;33.03;25.74
40205;BME280;26963;42.666;23.366;2023-08-30T09:27:56;94132.53;;;32.64;26.42
40205;BME280;26963;42.666;23.366;2023-08-30T09:30:23;94134.13;;;32.43;27.59
40205;BME280;26963;42.666;23.366;2023-08-30T09:32:49;94099.16;;;32.04;27.61
40205;BME280;26963;42.666;23.366;2023-08-30T09:35:14;94107.53;;;32.14;27.31
40205;BME280;26963;42.666;23.366;2023-08-30T09:37:40;94080.63;;;31.92;27.41
40205;BME280;26963;42.666;23.366;2023-08-30T09:40:06;94130.19;;;32.22;27.13
40205;BME280;26963;42.666;23.366;2023-08-30T09:42:32;94140.53;;;32.30;27.04
40205;BME280;26963;42.666;23.366;2023-08-30T09:44:57;94137.41;;;32.19;27.31
40205;BME280;26963;42.666;23.366;2023-08-30T09:47:24;94083.09;;;31.68;28.00
40205;BME280;26963;42.666;23.366;2023-08-30T09:49:54;94098.75;;;31.49;28.48
40205;BME280;26963;42.666;23.366;2023-08-30T09:52:20;94121.16;;;31.42;28.88
40205;BME280;26963;42.666;23.366;2023-08-30T09:54:48;94125.44;;;31.43;29.20
40205;BME280;26963;42.666;23.366;2023-08-30T09:57:15;94096.19;;;31.32;28.77
40205;BME280;26963;42.666;23.366;2023-08-30T09:59:40;94094.63;;;31.31;28.57
40205;BME280;26963;42.666;23.366;2023-08-30T10:02:08;94105.97;;;31.46;28.76
40205;BME280;26963;42.666;23.366;2023-08-30T10:04:35;94105.25;;;31.55;28.13
40205;BME280;26963;42.666;23.366;2023-08-30T10:07:03;94102.81;;;31.35;28.14
40205;BME280;26963;42.666;23.366;2023-08-30T10:09:30;94111.22;;;31.31;28.67
40205;BME280;26963;42.666;23.366;2023-08-30T10:11:57;94057.59;;;31.06;28.75
40205;BME280;26963;42.666;23.366;2023-08-30T10:14:23;94095.16;;;31.39;28.67
40205;BME280;26963;42.666;23.366;2023-08-30T10:16:49;94096.69;;;31.40;28.70
40205;BME280;26963;42.666;23.366;2023-08-30T10:19:25;94096.78;;;31.49;29.31
40205;BME280;26963;42.666;23.366;2023-08-30T10:22:01;94100.94;;;31.54;30.05
40205;BME280;26963;42.666;23.366;2023-08-30T10:24:38;94095.84;;;31.65;28.91
40205;BME280;26963;42.666;23.366;2023-08-30T10:27:05;94075.66;;;31.55;28.87
40205;BME280;26963;42.666;23.366;2023-08-30T10:29:34;94052.59;;;31.36;28.86
40205;BME280;26963;42.666;23.366;2023-08-30T10:32:06;94089.09;;;31.66;28.38
40205;BME280;26963;42.666;23.366;2023-08-30T10:34:36;94098.16;;;31.67;28.97
40205;BME280;26963;42.666;23.366;2023-08-30T10:37:06;94098.84;;;31.58;28.70
40205;BME280;26963;42.666;23.366;2023-08-30T10:39:39;94088.78;;;31.29;28.77
40205;BME280;26963;42.666;23.366;2023-08-30T10:42:08;94093.13;;;31.17;29.21
40205;BME280;26963;42.666;23.366;2023-08-30T10:44:34;94002.03;;;30.43;29.63
40205;BME280;26963;42.666;23.366;2023-08-30T10:47:01;94081.25;;;31.08;29.60
40205;BME280;26963;42.666;23.366;2023-08-30T10:49:27;94094.91;;;31.24;29.75
40205;BME280;26963;42.666;23.366;2023-08-30T10:51:57;94081.66;;;31.19;29.98
40205;BME280;26963;42.666;23.366;2023-08-30T10:54:24;94069.19;;;31.01;29.24
40205;BME280;26963;42.666;23.366;2023-08-30T10:56:57;94048.81;;;30.86;29.03
40205;BME280;26963;42.666;23.366;2023-08-30T10:59:25;94087.63;;;31.04;29.42
40205;BME280;26963;42.666;23.366;2023-08-30T11:01:51;94086.97;;;31.00;29.92
40205;BME280;26963;42.666;23.366;2023-08-30T11:04:18;94079.91;;;30.99;30.13
40205;BME280;26963;42.666;23.366;2023-08-30T11:06:45;94083.75;;;31.02;30.01
40205;BME280;26963;42.666;23.366;2023-08-30T11:09:21;94076.56;;;31.04;29.24
40205;BME280;26963;42.666;23.366;2023-08-30T11:11:47;94065.09;;;30.93;29.61
40205;BME280;26963;42.666;23.366;2023-08-30T11:14:14;94076.72;;;30.88;29.99
40205;BME280;26963;42.666;23.366;2023-08-30T11:16:40;94041.13;;;30.55;30.17
40205;BME280;26963;42.666;23.366;2023-08-30T11:19:08;94076.84;;;30.84;29.89
40205;BME280;26963;42.666;23.366;2023-08-30T11:21:36;94035.38;;;30.62;29.97
40205;BME280;26963;42.666;23.366;2023-08-30T11:24:04;94069.34;;;30.85;30.19
40205;BME280;26963;42.666;23.366;2023-08-30T11:26:30;94022.44;;;30.59;30.55
40205;BME280;26963;42.666;23.366;2023-08-30T11:28:56;94046.34;;;30.88;29.56
40205;BME280;26963;42.666;23.366;2023-08-30T11:31:23;94052.41;;;30.96;29.89
40205;BME280;26963;42.666;23.366;2023-08-30T11:33:55;94042.81;;;30.87;29.16
40205;BME280;26963;42.666;23.366;2023-08-30T11:36:23;94053.22;;;30.70;29.66
40205;BME280;26963;42.666;23.366;2023-08-30T11:38:49;94049.72;;;30.57;29.87
40205;BME280;26963;42.666;23.366;2023-08-30T11:41:16;94041.13;;;30.55;30.20
40205;BME280;26963;42.666;23.366;2023-08-30T11:43:43;94018.47;;;30.47;30.36
40205;BME280;26963;42.666;23.366;2023-08-30T11:46:09;94033.41;;;30.50;29.76
40205;BME280;26963;42.666;23.366;2023-08-30T11:48:35;94036.81;;;30.54;29.72
40205;BME280;26963;42.666;23.366;2023-08-30T11:51:01;93964.53;;;29.94;30.15
40205;BME280;26963;42.666;23.366;2023-08-30T11:53:27;93987.84;;;30.06;30.57
40205;BME280;26963;42.666;23.366;2023-08-30T11:55:53;94022.81;;;30.35;30.17
40205;BME280;26963;42.666;23.366;2023-08-30T11:58:19;94015.94;;;30.27;30.03
40205;BME280;26963;42.666;23.366;2023-08-30T12:00:45;94020.47;;;30.34;29.37
40205;BME280;26963;42.666;23.366;2023-08-30T12:03:13;94013.53;;;30.29;29.77
40205;BME280;26963;42.666;23.366;2023-08-30T12:05:46;94011.53;;;30.30;29.33
40205;BME280;26963;42.666;23.366;2023-08-30T12:08:27;93977.78;;;30.13;29.62
40205;BME280;26963;42.666;23.366;2023-08-30T12:10:54;94018.81;;;30.36;29.58
40205;BME280;26963;42.666;23.366;2023-08-30T12:13:27;93985.25;;;30.25;28.96
40205;BME280;26963;42.666;23.366;2023-08-30T12:15:54;94004.69;;;30.34;29.21
40205;BME280;26963;42.666;23.366;2023-08-30T12:18:22;94025.97;;;30.34;28.81
40205;BME280;26963;42.666;23.366;2023-08-30T12:20:53;94012.63;;;30.32;28.58
40205;BME280;26963;42.666;23.366;2023-08-30T12:23:22;94013.22;;;30.14;28.49
40205;BME280;26963;42.666;23.366;2023-08-30T12:26:05;94012.31;;;30.04;28.98
40205;BME280;26963;42.666;23.366;2023-08-30T12:28:39;93955.34;;;29.46;29.20
40205;BME280;26963;42.666;23.366;2023-08-30T12:31:05;94003.81;;;29.86;28.89
40205;BME280;26963;42.666;23.366;2023-08-30T12:33:33;93988.59;;;29.94;29.00
40205;BME280;26963;42.666;23.366;2023-08-30T12:36:17;94001.06;;;30.24;29.10
40205;BME280;26963;42.666;23.366;2023-08-30T12:38:43;93976.91;;;30.16;29.24
40205;BME280;26963;42.666;23.366;2023-08-30T12:41:08;93970.72;;;30.12;28.45
40205;BME280;26963;42.666;23.366;2023-08-30T12:43:34;93986.16;;;30.22;27.51
40205;BME280;26963;42.666;23.366;2023-08-30T12:45:59;93983.38;;;30.35;27.98
40205;BME280;26963;42.666;23.366;2023-08-30T12:48:25;93983.81;;;30.46;27.69
40205;BME280;26963;42.666;23.366;2023-08-30T12:50:51;93935.28;;;30.23;26.75
40205;BME280;26963;42.666;23.366;2023-08-30T12:53:17;93975.97;;;30.45;26.54